Time;durP1;ratioP1;P1;durP2;ratioP2;P2;SDS_P1;SDS_P2;PMS_P1;PMS_P2;Temp;Humidity;BMP_temperature;BMP_pressure;BME280_temperature;BME280_humidity;BME280_pressure;Samples;Min_cycle;Max_cycle;Signal;HPM_P1;HPM_P2
2021/08/24 02:47:40;;;;;;;3.33;2.78;;;18.70;99.90;;;;;;4818054;29;20049;-77
2021/08/24 02:50:08;;;;;;;3.65;2.70;;;18.70;99.90;;;;;;4819191;29;20026;-77
2021/08/24 02:52:36;;;;;;;4.35;3.00;;;18.70;99.90;;;;;;4819549;29;20085;-77
2021/08/24 02:55:05;;;;;;;3.38;2.95;;;18.70;99.90;;;;;;4819479;29;20395;-77
2021/08/24 02:57:30;;;;;;;3.55;3.03;;;18.70;99.90;;;;;;4820675;29;20038;-79
2021/08/24 02:59:56;;;;;;;6.03;2.70;;;18.70;99.90;;;;;;4819963;29;20031;-79
2021/08/24 03:02:23;;;;;;;3.47;2.80;;;18.70;99.90;;;;;;4819631;29;20042;-81
2021/08/24 03:04:48;;;;;;;3.20;2.72;;;18.70;99.90;;;;;;4820303;29;20151;-78
2021/08/24 03:07:33;;;;;;;3.63;2.58;;;18.80;99.90;;;;;;4819147;29;20326;-78
2021/08/24 03:10:09;;;;;;;7.43;3.17;;;18.80;99.90;;;;;;4834289;29;20035;-79
2021/08/24 03:12:54;;;;;;;4.32;2.70;;;18.80;99.90;;;;;;4820118;29;20026;-79
2021/08/24 03:15:39;;;;;;;4.90;3.03;;;18.80;99.90;;;;;;4819950;29;20035;-79
2021/08/24 03:18:16;;;;;;;5.47;3.25;;;18.90;99.90;;;;;;4840024;29;20018;-79
2021/08/24 03:20:44;;;;;;;5.10;2.80;;;18.90;99.90;;;;;;4837017;29;20329;-78
2021/08/24 03:23:13;;;;;;;4.70;3.30;;;18.90;99.90;;;;;;4837238;29;20309;-79
2021/08/24 03:25:43;;;;;;;6.70;2.72;;;18.90;99.90;;;;;;4824068;29;20022;-79
2021/08/24 03:28:21;;;;;;;3.80;3.25;;;18.90;99.90;;;;;;4823961;29;20026;-78
2021/08/24 03:30:47;;;;;;;3.60;3.15;;;18.90;99.90;;;;;;4846226;29;20026;-78
2021/08/24 03:33:14;;;;;;;4.30;3.13;;;18.90;99.90;;;;;;4839555;29;20030;-78
2021/08/24 03:35:40;;;;;;;4.07;3.67;;;18.90;99.90;;;;;;4847771;29;20070;-78
2021/08/24 03:38:07;;;;;;;8.98;3.25;;;18.90;99.90;;;;;;4853346;29;20051;-78
2021/08/24 03:40:33;;;;;;;4.43;3.40;;;18.90;99.90;;;;;;4844023;29;20528;-78
2021/08/24 03:42:58;;;;;;;4.07;3.17;;;18.90;99.90;;;;;;4857975;29;20081;-78
2021/08/24 03:45:25;;;;;;;4.15;3.45;;;18.90;99.90;;;;;;4842055;29;20041;-78
2021/08/24 03:47:51;;;;;;;3.93;2.97;;;18.90;99.90;;;;;;4846973;29;20041;-79
2021/08/24 03:50:18;;;;;;;4.85;3.15;;;18.90;99.90;;;;;;4842376;29;20297;-78
2021/08/24 03:52:44;;;;;;;6.53;4.00;;;18.90;99.90;;;;;;4855639;29;20045;-78
2021/08/24 03:55:10;;;;;;;4.97;3.95;;;18.80;99.90;;;;;;4858978;29;20338;-78
2021/08/24 03:57:36;;;;;;;6.07;3.70;;;18.80;99.90;;;;;;4841770;29;20034;-79
2021/08/24 04:00:04;;;;;;;5.40;3.72;;;18.80;99.90;;;;;;4853242;29;20068;-78
2021/08/24 04:02:38;;;;;;;5.00;3.83;;;18.80;99.90;;;;;;4838175;29;20038;-79
2021/08/24 04:05:04;;;;;;;4.50;4.00;;;18.90;99.90;;;;;;4832051;29;20034;-78
2021/08/24 04:07:31;;;;;;;5.23;4.20;;;18.80;99.90;;;;;;4840653;29;20029;-78
2021/08/24 04:09:57;;;;;;;4.28;3.88;;;18.90;99.90;;;;;;4841900;29;20046;-79
2021/08/24 04:12:24;;;;;;;4.50;4.10;;;18.80;99.90;;;;;;4837767;29;20511;-79
2021/08/24 04:14:51;;;;;;;7.15;4.65;;;18.80;99.90;;;;;;4842415;29;20030;-79
2021/08/24 04:17:17;;;;;;;4.43;4.03;;;18.80;99.90;;;;;;4835651;29;20326;-79
2021/08/24 04:19:43;;;;;;;6.20;4.40;;;18.80;99.90;;;;;;4840064;29;20030;-79
2021/08/24 04:22:11;;;;;;;5.80;4.57;;;18.70;99.90;;;;;;4864127;29;20359;-78
2021/08/24 04:24:37;;;;;;;7.22;4.20;;;18.60;99.90;;;;;;4855026;29;20065;-78
2021/08/24 04:27:04;;;;;;;5.38;4.45;;;18.60;99.90;;;;;;4867382;29;20034;-79
2021/08/24 04:29:30;;;;;;;8.38;5.10;;;18.60;99.90;;;;;;4862627;29;20130;-79
2021/08/24 04:31:58;;;;;;;5.67;4.90;;;18.50;99.90;;;;;;4857091;29;20109;-79
2021/08/24 04:34:24;;;;;;;6.18;5.45;;;18.50;99.90;;;;;;4837425;29;20070;-79
2021/08/24 04:36:50;;;;;;;6.15;5.32;;;18.50;99.90;;;;;;4840791;29;20032;-79
2021/08/24 04:39:16;;;;;;;6.32;5.03;;;18.60;99.90;;;;;;4848802;29;20038;-78
2021/08/24 04:41:41;;;;;;;7.00;4.60;;;18.50;99.90;;;;;;4840603;29;20056;-79
2021/08/24 04:44:07;;;;;;;10.30;5.30;;;18.50;99.90;;;;;;4845223;29;20131;-78
2021/08/24 04:46:33;;;;;;;5.68;4.82;;;18.50;99.90;;;;;;4836016;29;20054;-79
2021/08/24 04:48:58;;;;;;;8.77;6.13;;;18.50;99.90;;;;;;4848612;29;20030;-78
2021/08/24 04:51:24;;;;;;;7.97;5.38;;;18.50;99.90;;;;;;4853040;29;20041;-79
2021/08/24 04:53:50;;;;;;;8.32;6.47;;;18.40;99.90;;;;;;4851323;29;20192;-78
2021/08/24 04:56:16;;;;;;;10.40;5.88;;;18.40;99.90;;;;;;4856301;29;20399;-79
2021/08/24 04:58:41;;;;;;;9.00;5.88;;;18.30;99.90;;;;;;4850834;29;20042;-78
2021/08/24 05:01:07;;;;;;;6.70;5.68;;;18.40;99.90;;;;;;4851262;29;20222;-78
2021/08/24 05:03:33;;;;;;;6.95;6.25;;;18.20;99.90;;;;;;4850894;29;20034;-78
2021/08/24 05:05:59;;;;;;;8.52;5.50;;;18.20;99.90;;;;;;4835768;29;20039;-79
2021/08/24 05:08:27;;;;;;;7.85;6.28;;;18.30;99.90;;;;;;4851325;29;20061;-78
2021/08/24 05:10:52;;;;;;;8.23;6.05;;;18.30;99.90;;;;;;4849549;29;20030;-79
2021/08/24 05:13:19;;;;;;;9.82;5.93;;;18.30;99.90;;;;;;4836984;29;20061;-78
2021/08/24 05:15:45;;;;;;;5.80;5.18;;;18.30;99.90;;;;;;4834813;29;20042;-78
2021/08/24 05:18:11;;;;;;;6.28;4.78;;;18.30;99.90;;;;;;4850311;29;20387;-78
2021/08/24 05:20:37;;;;;;;5.30;4.80;;;18.30;99.90;;;;;;4849851;29;20057;-78
2021/08/24 05:23:03;;;;;;;4.85;4.38;;;18.30;99.90;;;;;;4835231;29;20030;-78
2021/08/24 05:25:29;;;;;;;9.27;4.25;;;18.40;99.90;;;;;;4834908;29;20034;-78
2021/08/24 05:27:55;;;;;;;5.47;4.65;;;18.40;99.90;;;;;;4860252;29;20026;-78
2021/08/24 05:30:24;;;;;;;5.68;4.88;;;18.40;99.90;;;;;;4868542;29;20041;-78
2021/08/24 05:32:51;;;;;;;4.82;3.97;;;18.40;99.90;;;;;;4868524;29;20035;-78
2021/08/24 05:35:18;;;;;;;4.40;3.60;;;18.50;99.90;;;;;;4854155;29;20114;-78
2021/08/24 05:37:44;;;;;;;;;;;18.50;99.90;;;;;;4868806;29;20206;-78
2021/08/24 05:40:11;;;;;;;4.07;3.63;;;18.50;99.90;;;;;;4854205;29;19916;-78
2021/08/24 05:42:37;;;;;;;4.93;3.78;;;18.50;99.60;;;;;;4868469;29;20063;-78
2021/08/24 05:45:04;;;;;;;5.17;3.93;;;18.50;99.80;;;;;;4854129;29;20038;-78
2021/08/24 05:47:30;;;;;;;4.07;3.67;;;18.60;99.70;;;;;;4867995;29;20116;-78
2021/08/24 05:49:57;;;;;;;10.43;3.72;;;18.70;99.60;;;;;;4868543;29;20344;-78
2021/08/24 05:52:23;;;;;;;;;;;18.80;99.40;;;;;;4868487;29;20034;-78
2021/08/24 05:54:50;;;;;;;6.90;4.40;;;18.80;98.90;;;;;;4868103;29;19943;-78
2021/08/24 05:57:18;;;;;;;5.93;4.05;;;18.80;99.00;;;;;;4853484;29;20225;-78
2021/08/24 05:59:44;;;;;;;4.55;3.88;;;18.70;99.00;;;;;;4863590;29;20030;-78
2021/08/24 06:02:10;;;;;;;5.03;2.95;;;18.80;98.90;;;;;;4834958;29;20038;-78
2021/08/24 06:04:36;;;;;;;4.97;3.47;;;18.70;98.10;;;;;;4834405;29;20065;-78
2021/08/24 06:07:03;;;;;;;9.70;3.60;;;18.70;98.80;;;;;;4834278;29;20041;-78
2021/08/24 06:09:29;;;;;;;;;;;18.80;98.90;;;;;;4834307;29;20480;-78
2021/08/24 06:11:55;;;;;;;3.70;3.13;;;18.80;98.80;;;;;;4834281;29;19920;-78
2021/08/24 06:14:23;;;;;;;7.40;3.38;;;18.90;98.60;;;;;;4833854;29;20078;-78
2021/08/24 06:16:54;;;;;;;3.75;2.72;;;18.90;98.30;;;;;;4834154;29;20277;-78
2021/08/24 06:19:21;;;;;;;4.72;2.67;;;19.00;98.70;;;;;;4833917;29;20055;-78
2021/08/24 06:21:47;;;;;;;5.30;2.92;;;19.10;97.80;;;;;;4834065;29;20083;-78
2021/08/24 06:24:13;;;;;;;5.25;2.42;;;19.20;97.50;;;;;;4834970;29;20067;-78
2021/08/24 06:26:41;;;;;;;2.90;2.47;;;19.30;97.20;;;;;;4834077;29;20305;-79
2021/08/24 06:29:08;;;;;;;6.00;2.70;;;19.40;96.90;;;;;;4833920;29;20034;-78
2021/08/24 06:31:39;;;;;;;5.60;2.47;;;19.50;96.80;;;;;;4834107;29;20044;-78
2021/08/24 06:34:08;;;;;;;3.50;2.10;;;19.50;96.40;;;;;;4834015;29;20039;-79
2021/08/24 06:36:34;;;;;;;2.08;1.77;;;19.60;96.10;;;;;;4834029;29;20038;-79
2021/08/24 06:38:59;;;;;;;2.90;1.92;;;19.60;96.10;;;;;;4834224;29;20026;-79
2021/08/24 06:41:25;;;;;;;4.82;1.98;;;19.60;95.90;;;;;;4834333;29;20075;-79
2021/08/24 06:43:52;;;;;;;3.50;1.80;;;19.60;96.00;;;;;;4834006;29;20031;-78
2021/08/24 06:46:17;;;;;;;3.05;2.00;;;19.40;95.70;;;;;;4841310;29;20069;-79
2021/08/24 06:48:45;;;;;;;5.32;2.70;;;19.40;96.60;;;;;;4867184;29;20110;-79
2021/08/24 06:51:12;;;;;;;4.65;1.55;;;19.30;96.40;;;;;;4867773;29;20371;-79
2021/08/24 06:53:40;;;;;;;4.70;1.77;;;19.30;96.40;;;;;;4867497;29;20036;-79
2021/08/24 06:56:12;;;;;;;2.42;1.70;;;19.40;95.90;;;;;;4867440;29;20159;-79
2021/08/24 06:58:39;;;;;;;3.03;1.83;;;19.40;96.20;;;;;;4853098;29;20026;-79
2021/08/24 07:01:06;;;;;;;1.60;1.50;;;19.50;96.20;;;;;;4866989;29;20055;-79
2021/08/24 07:03:32;;;;;;;2.97;1.58;;;19.50;96.00;;;;;;4867200;29;20081;-79
2021/08/24 07:05:58;;;;;;;1.83;1.30;;;19.40;95.80;;;;;;4847780;29;20037;-79
2021/08/24 07:08:24;;;;;;;2.75;1.35;;;19.20;96.00;;;;;;4857058;29;20021;-79
2021/08/24 07:10:52;;;;;;;5.25;1.60;;;19.20;96.30;;;;;;4863776;29;20023;-79
2021/08/24 07:13:18;;;;;;;2.03;1.20;;;19.10;96.00;;;;;;4856289;29;20563;-79
2021/08/24 07:15:43;;;;;;;2.25;1.30;;;19.10;96.20;;;;;;4852141;29;20029;-79
2021/08/24 07:18:10;;;;;;;2.35;1.00;;;19.10;96.40;;;;;;4864636;29;20050;-79
2021/08/24 07:20:35;;;;;;;2.35;1.20;;;19.20;96.40;;;;;;4852569;29;20034;-79
2021/08/24 07:23:02;;;;;;;2.05;1.30;;;19.20;96.40;;;;;;4851655;29;20159;-79
2021/08/24 07:25:31;;;;;;;6.20;2.60;;;19.10;96.40;;;;;;4843553;29;20058;-79
2021/08/24 07:27:57;;;;;;;2.38;1.58;;;19.10;96.30;;;;;;4833576;29;20396;-79
2021/08/24 07:30:24;;;;;;;2.67;1.30;;;19.10;96.40;;;;;;4841377;29;20028;-79
2021/08/24 07:32:49;;;;;;;;;;;19.10;96.40;;;;;;4837265;29;20035;-79
2021/08/24 07:35:17;;;;;;;2.50;1.00;;;19.30;96.30;;;;;;4861480;29;19915;-79
2021/08/24 07:37:43;;;;;;;1.83;1.10;;;19.40;96.30;;;;;;4844891;29;20030;-79
2021/08/24 07:40:10;;;;;;;1.83;1.00;;;19.40;96.20;;;;;;4844055;29;20037;-79
2021/08/24 07:42:37;;;;;;;4.00;1.00;;;19.60;96.10;;;;;;4870226;29;20040;-80
2021/08/24 07:45:05;;;;;;;1.98;1.00;;;19.70;95.80;;;;;;4855001;29;20242;-79
2021/08/24 07:47:31;;;;;;;3.70;1.05;;;19.90;95.40;;;;;;4854907;29;20337;-80
2021/08/24 07:49:57;;;;;;;1.20;0.93;;;20.00;94.90;;;;;;4870683;29;20097;-79
2021/08/24 07:52:23;;;;;;;0.65;0.60;;;20.10;94.50;;;;;;4855185;29;20033;-79
2021/08/24 07:54:48;;;;;;;2.25;1.08;;;20.20;94.60;;;;;;4870089;29;20057;-80
2021/08/24 07:57:14;;;;;;;4.28;0.80;;;20.40;94.00;;;;;;4850717;29;20361;-80
2021/08/24 07:59:40;;;;;;;1.13;0.80;;;20.50;93.80;;;;;;4852146;29;20049;-80
2021/08/24 08:02:12;;;;;;;2.28;0.80;;;20.70;93.50;;;;;;4848986;29;20037;-80
2021/08/24 08:04:38;;;;;;;1.88;0.68;;;20.80;92.80;;;;;;4840878;29;20234;-80
2021/08/24 08:07:03;;;;;;;0.80;0.80;;;20.70;92.80;;;;;;4854828;29;20026;-80
2021/08/24 08:09:30;;;;;;;1.50;1.00;;;20.80;92.80;;;;;;4870354;29;20029;-80
2021/08/24 08:11:55;;;;;;;0.67;0.50;;;20.90;92.70;;;;;;4870262;29;20034;-80
2021/08/24 08:14:21;;;;;;;0.75;0.50;;;20.80;91.80;;;;;;4855144;29;20627;-80
2021/08/24 08:16:47;;;;;;;2.22;0.70;;;20.80;92.10;;;;;;4869901;29;20270;-79
2021/08/24 08:19:13;;;;;;;1.48;0.70;;;20.80;92.40;;;;;;4866564;29;20042;-80
2021/08/24 08:21:40;;;;;;;1.42;0.80;;;20.90;92.30;;;;;;4829606;29;20026;-80
2021/08/24 08:24:06;;;;;;;5.40;0.88;;;21.00;92.30;;;;;;4818408;29;20023;-79
2021/08/24 08:26:32;;;;;;;0.57;0.57;;;21.10;92.50;;;;;;4818255;29;20057;-80
2021/08/24 08:29:02;;;;;;;4.53;1.85;;;21.20;92.20;;;;;;4818321;29;20148;-79
2021/08/24 08:31:28;;;;;;;0.95;0.73;;;21.10;92.10;;;;;;4817821;29;20039;-79
2021/08/24 08:33:54;;;;;;;1.27;0.77;;;21.00;92.10;;;;;;4824009;29;20034;-80
2021/08/24 08:36:21;;;;;;;2.60;0.90;;;20.90;92.10;;;;;;4845821;29;20330;-80
2021/08/24 08:38:46;;;;;;;1.90;0.77;;;20.80;92.60;;;;;;4839170;29;20045;-79
2021/08/24 08:41:23;;;;;;;3.25;0.68;;;20.80;92.30;;;;;;4869732;29;20097;-80
2021/08/24 08:44:03;;;;;;;1.13;0.80;;;20.70;92.30;;;;;;4853582;29;20041;-80
2021/08/24 08:46:47;;;;;;;1.50;0.80;;;20.80;92.40;;;;;;4854136;29;20301;-80
2021/08/24 08:49:37;;;;;;;4.22;0.80;;;21.00;92.50;;;;;;4854313;29;20060;-80
2021/08/24 08:52:28;;;;;;;2.67;0.70;;;21.20;91.60;;;;;;4854376;29;20038;-79
2021/08/24 08:54:59;;;;;;;0.88;0.68;;;21.40;91.30;;;;;;4836882;29;20034;-78
2021/08/24 08:57:49;;;;;;;3.80;0.90;;;21.40;91.40;;;;;;4818576;29;20035;-78
2021/08/24 09:00:19;;;;;;;4.85;0.82;;;21.30;91.30;;;;;;4835201;29;20038;-78
2021/08/24 09:02:58;;;;;;;1.42;0.82;;;21.20;91.40;;;;;;4835252;29;20049;-78
2021/08/24 09:05:26;;;;;;;1.45;0.80;;;21.00;91.90;;;;;;4835701;29;20050;-79
2021/08/24 09:07:55;;;;;;;1.00;0.80;;;20.90;92.10;;;;;;4835519;29;20028;-78
2021/08/24 09:10:41;;;;;;;2.03;0.82;;;20.90;92.10;;;;;;4833798;29;20034;-78
2021/08/24 09:13:35;;;;;;;1.17;0.73;;;21.00;92.30;;;;;;4832278;29;20052;-78
2021/08/24 09:16:32;;;;;;;2.00;0.85;;;21.00;92.00;;;;;;4840887;29;20086;-78
2021/08/24 09:19:14;;;;;;;3.40;0.75;;;21.10;92.10;;;;;;4869027;29;20055;-78
2021/08/24 09:21:45;;;;;;;0.50;0.50;;;21.20;91.60;;;;;;4868974;29;20042;-78
2021/08/24 09:24:26;;;;;;;1.45;0.93;;;21.10;91.60;;;;;;4868968;29;20030;-78
2021/08/24 09:27:06;;;;;;;7.97;0.75;;;21.10;92.00;;;;;;4868977;29;20034;-78
2021/08/24 09:29:47;;;;;;;2.78;0.45;;;21.10;92.10;;;;;;4868806;29;20118;-78
2021/08/24 09:32:26;;;;;;;1.98;0.82;;;21.00;92.30;;;;;;4854545;29;20057;-78
2021/08/24 09:35:22;;;;;;;2.38;0.70;;;21.00;92.90;;;;;;4868847;29;20105;-78
2021/08/24 09:37:48;;;;;;;4.38;1.20;;;21.00;93.40;;;;;;4856435;29;20076;-78
2021/08/24 09:40:14;;;;;;;3.92;0.90;;;20.80;94.00;;;;;;4836006;29;20039;-78
2021/08/24 09:42:44;;;;;;;4.77;1.50;;;20.80;94.90;;;;;;4849903;29;20030;-78
2021/08/24 09:45:18;;;;;;;7.63;1.90;;;20.70;95.40;;;;;;4848599;29;20362;-79
2021/08/24 09:47:51;;;;;;;5.25;1.60;;;20.60;96.70;;;;;;4835124;29;20050;-78
2021/08/24 09:50:17;;;;;;;4.63;1.55;;;20.50;97.00;;;;;;4832043;29;20034;-78
2021/08/24 09:52:50;;;;;;;5.18;1.42;;;20.50;97.50;;;;;;4831351;29;20057;-78
2021/08/24 09:55:28;;;;;;;2.30;1.45;;;20.70;98.00;;;;;;4858982;29;20119;-78
2021/08/24 09:58:00;;;;;;;1.73;0.88;;;21.00;98.20;;;;;;4849983;29;20034;-77
2021/08/24 10:00:40;;;;;;;4.13;0.95;;;21.30;97.60;;;;;;4840650;29;20057;-77
2021/08/24 10:03:28;;;;;;;3.10;0.82;;;21.50;96.90;;;;;;4857090;29;20226;-77
2021/08/24 10:06:30;;;;;;;2.75;1.00;;;21.80;96.90;;;;;;4849384;29;20030;-77
2021/08/24 10:09:12;;;;;;;1.98;0.93;;;22.00;97.50;;;;;;4838883;29;20026;-77
2021/08/24 10:11:38;;;;;;;0.93;0.73;;;22.50;97.70;;;;;;4857175;29;20536;-77
2021/08/24 10:14:23;;;;;;;0.77;0.52;;;22.90;95.50;;;;;;4847408;29;20142;-78
2021/08/24 10:16:52;;;;;;;1.50;0.70;;;23.40;95.90;;;;;;4839640;29;20037;-77
2021/08/24 10:19:24;;;;;;;1.30;0.77;;;23.70;91.10;;;;;;4834321;29;20034;-78
2021/08/24 10:21:55;;;;;;;1.20;0.50;;;23.90;92.40;;;;;;4835266;29;20034;-78
2021/08/24 10:24:32;;;;;;;2.92;0.90;;;24.00;90.10;;;;;;4855022;29;20030;-79
2021/08/24 10:27:03;;;;;;;4.30;1.60;;;23.80;89.00;;;;;;4852207;29;20034;-79
2021/08/24 10:29:35;;;;;;;3.75;0.60;;;23.60;86.70;;;;;;4868193;29;20271;-79
2021/08/24 10:32:09;;;;;;;1.83;0.70;;;23.30;88.10;;;;;;4864847;29;20121;-78
2021/08/24 10:34:48;;;;;;;1.67;0.60;;;23.00;89.40;;;;;;4817137;29;20038;-78
2021/08/24 10:37:23;;;;;;;1.52;0.30;;;22.70;89.10;;;;;;4817014;29;20057;-78
2021/08/24 10:39:54;;;;;;;1.08;0.40;;;22.50;90.40;;;;;;4816444;29;20109;-79
2021/08/24 10:42:28;;;;;;;0.85;0.50;;;21.90;91.20;;;;;;4840143;29;20038;-78
2021/08/24 10:45:00;;;;;;;0.88;0.50;;;21.80;92.30;;;;;;4834123;29;20031;-78
2021/08/24 10:47:30;;;;;;;2.53;0.80;;;21.90;93.10;;;;;;4818570;29;20054;-79
2021/08/24 10:49:58;;;;;;;3.38;0.68;;;22.40;92.80;;;;;;4831388;29;20288;-77
2021/08/24 10:52:57;;;;;;;2.78;0.70;;;23.00;92.50;;;;;;4833726;29;20042;-77
2021/08/24 10:55:28;;;;;;;3.83;0.80;;;23.40;90.40;;;;;;4856891;29;20034;-77
2021/08/24 10:58:10;;;;;;;0.82;0.40;;;23.30;90.50;;;;;;4840856;29;20039;-77
2021/08/24 11:01:32;;;;;;;2.65;0.47;;;23.20;90.20;;;;;;4865541;29;20104;-77
2021/08/24 11:04:05;;;;;;;0.95;0.63;;;23.20;90.60;;;;;;4814498;29;20046;-77
2021/08/24 11:06:50;;;;;;;0.70;0.30;;;23.40;90.40;;;;;;4789258;29;20473;-77
2021/08/24 11:09:31;;;;;;;2.70;0.35;;;23.50;87.90;;;;;;4795088;30;20057;-77
2021/08/24 11:12:21;;;;;;;1.10;0.57;;;23.40;84.60;;;;;;4800149;30;20071;-77
2021/08/24 11:14:46;;;;;;;2.10;0.80;;;23.40;85.80;;;;;;4800025;29;20066;-77
2021/08/24 11:17:55;;;;;;;0.50;0.30;;;23.20;86.20;;;;;;4800745;29;20050;-77
2021/08/24 11:21:03;;;;;;;0.57;0.32;;;23.10;86.10;;;;;;4696422;30;20319;-77
2021/08/24 11:23:57;;;;;;;2.08;0.60;;;22.80;86.00;;;;;;4676473;30;20467;-77
2021/08/24 11:26:41;;;;;;;1.45;0.60;;;22.70;88.00;;;;;;4664776;30;20258;-77
2021/08/24 11:29:09;;;;;;;0.70;0.50;;;22.50;88.70;;;;;;4671307;30;20082;-77
2021/08/24 11:31:51;;;;;;;0.90;0.60;;;22.50;89.00;;;;;;4659823;30;20061;-77
2021/08/24 11:34:33;;;;;;;3.05;0.60;;;22.60;87.30;;;;;;4659955;30;20051;-77
2021/08/24 11:37:08;;;;;;;1.63;0.57;;;22.80;87.80;;;;;;4675368;30;20046;-77
2021/08/24 11:40:03;;;;;;;3.50;0.57;;;23.00;85.90;;;;;;4686037;30;20045;-77
2021/08/24 11:42:37;;;;;;;2.63;0.50;;;23.00;85.90;;;;;;4693160;30;20126;-77
2021/08/24 11:45:07;;;;;;;0.52;0.38;;;23.10;84.40;;;;;;4693362;30;20045;-77
2021/08/24 11:47:50;;;;;;;0.40;0.30;;;23.10;86.00;;;;;;4681947;30;20065;-77
2021/08/24 11:50:24;;;;;;;1.17;0.60;;;23.00;83.50;;;;;;4693013;30;20045;-77
2021/08/24 11:53:03;;;;;;;0.60;0.43;;;23.00;83.50;;;;;;4662254;30;20050;-77
2021/08/24 11:55:33;;;;;;;1.02;0.52;;;23.10;82.00;;;;;;4684506;30;20076;-77
2021/08/24 11:58:31;;;;;;;1.75;0.70;;;23.10;81.20;;;;;;4755781;30;20039;-76
2021/08/24 12:01:01;;;;;;;0.82;0.50;;;23.40;78.00;;;;;;4810964;29;20357;-77
2021/08/24 12:03:28;;;;;;;2.90;0.60;;;23.30;78.70;;;;;;4826125;29;20030;-77
2021/08/24 12:06:00;;;;;;;0.47;0.30;;;23.10;79.60;;;;;;4835947;29;20053;-79
2021/08/24 12:08:28;;;;;;;0.68;0.40;;;22.90;79.30;;;;;;4841641;29;20036;-77
2021/08/24 12:11:10;;;;;;;1.70;0.60;;;22.80;80.50;;;;;;4855513;29;20034;-78
2021/08/24 12:13:48;;;;;;;2.05;0.40;;;22.80;79.80;;;;;;4835900;29;20034;-78
2021/08/24 12:16:28;;;;;;;2.03;0.60;;;22.80;79.80;;;;;;4835883;29;20042;-78
2021/08/24 12:18:57;;;;;;;1.38;0.70;;;23.00;79.40;;;;;;4835804;29;20034;-79
2021/08/24 12:21:35;;;;;;;0.80;0.30;;;23.10;79.70;;;;;;4835723;29;20391;-78
2021/08/24 12:24:22;;;;;;;0.77;0.30;;;23.10;78.60;;;;;;4837153;29;20073;-79
2021/08/24 12:26:49;;;;;;;0.82;0.30;;;23.00;79.40;;;;;;4835996;29;20031;-78
2021/08/24 12:29:35;;;;;;;1.67;0.82;;;23.00;79.10;;;;;;4835743;29;20101;-78
2021/08/24 12:32:05;;;;;;;0.80;0.55;;;23.00;79.50;;;;;;4836847;29;20050;-78
2021/08/24 12:34:33;;;;;;;1.02;0.20;;;23.20;80.70;;;;;;4835404;29;20034;-78
2021/08/24 12:37:20;;;;;;;0.20;0.20;;;23.10;78.00;;;;;;4835550;29;20034;-78
2021/08/24 12:39:50;;;;;;;4.78;0.40;;;23.00;78.00;;;;;;4783618;30;20054;-79
2021/08/24 12:42:25;;;;;;;0.50;0.20;;;23.00;78.70;;;;;;4783262;30;20039;-78
2021/08/24 12:45:02;;;;;;;1.20;0.52;;;23.10;78.80;;;;;;4798662;29;20092;-78
2021/08/24 12:47:40;;;;;;;2.58;0.35;;;23.20;78.20;;;;;;4783321;30;20043;-78
2021/08/24 12:50:08;;;;;;;1.48;0.57;;;23.30;77.00;;;;;;4768284;30;20076;-77
2021/08/24 12:52:45;;;;;;;0.38;0.32;;;23.40;79.00;;;;;;4809993;29;20035;-77
2021/08/24 12:55:34;;;;;;;0.93;0.50;;;23.60;77.60;;;;;;4815750;29;20042;-77
2021/08/24 12:58:23;;;;;;;2.05;0.30;;;23.40;76.40;;;;;;4800863;29;20046;-77
2021/08/24 13:01:22;;;;;;;0.95;0.50;;;23.40;77.20;;;;;;4800744;29;20039;-77
2021/08/24 13:04:12;;;;;;;3.15;0.45;;;23.50;78.00;;;;;;4800717;29;20114;-77
2021/08/24 13:06:41;;;;;;;1.63;0.30;;;23.60;77.10;;;;;;4800943;29;20069;-77
2021/08/24 13:09:18;;;;;;;0.38;0.30;;;23.50;76.00;;;;;;4800501;29;20054;-77
2021/08/24 13:12:15;;;;;;;0.50;0.30;;;23.40;77.00;;;;;;4800637;29;20039;-77
2021/08/24 13:14:58;;;;;;;0.82;0.60;;;23.40;77.80;;;;;;4800508;29;20039;-77
2021/08/24 13:17:27;;;;;;;1.80;0.50;;;23.40;78.80;;;;;;4842453;29;20237;-77
2021/08/24 13:19:57;;;;;;;3.67;0.50;;;23.50;79.20;;;;;;4867989;29;20030;-77
2021/08/24 13:23:00;;;;;;;1.90;0.60;;;23.60;79.50;;;;;;4852550;29;20121;-77
2021/08/24 13:25:34;;;;;;;1.23;0.80;;;23.60;78.50;;;;;;4867888;29;20205;-76
2021/08/24 13:28:07;;;;;;;1.25;0.50;;;23.60;78.50;;;;;;4859534;29;20106;-77
2021/08/24 13:30:52;;;;;;;2.42;0.70;;;23.50;78.20;;;;;;4836976;29;20309;-77
2021/08/24 13:33:26;;;;;;;3.45;0.75;;;23.50;79.60;;;;;;4830052;29;20038;-77
2021/08/24 13:36:03;;;;;;;2.67;0.40;;;23.80;80.10;;;;;;4848312;29;20034;-77
2021/08/24 13:38:35;;;;;;;0.60;0.50;;;23.90;77.00;;;;;;4847173;29;20026;-78
2021/08/24 13:41:19;;;;;;;1.88;0.60;;;23.80;76.90;;;;;;4844179;29;20023;-77
2021/08/24 13:43:52;;;;;;;1.13;0.82;;;23.60;77.50;;;;;;4824264;29;20026;-77
2021/08/24 13:46:29;;;;;;;1.05;0.75;;;23.30;79.60;;;;;;4853256;29;20056;-77
2021/08/24 13:48:57;;;;;;;0.90;0.77;;;23.00;81.10;;;;;;4834934;29;20030;-77
2021/08/24 13:51:23;;;;;;;2.28;0.73;;;22.80;81.80;;;;;;4837644;29;20061;-77
2021/08/24 13:53:58;;;;;;;0.90;0.52;;;22.50;83.10;;;;;;4853216;29;20030;-77
2021/08/24 13:56:35;;;;;;;2.80;1.00;;;22.40;83.60;;;;;;4853276;29;20037;-78
2021/08/24 13:59:02;;;;;;;8.77;0.70;;;22.20;85.00;;;;;;4853812;29;20037;-79
2021/08/24 14:01:55;;;;;;;1.13;0.88;;;21.90;86.90;;;;;;4841904;29;20049;-81
2021/08/24 14:04:24;;;;;;;4.32;1.10;;;21.50;90.30;;;;;;4786357;29;20039;-79
2021/08/24 14:06:56;;;;;;;1.83;1.08;;;21.10;92.40;;;;;;4802113;29;20042;-79
2021/08/24 14:09:30;;;;;;;3.97;0.80;;;20.80;93.30;;;;;;4800951;29;20347;-77
2021/08/24 14:12:02;;;;;;;2.90;0.70;;;20.60;94.70;;;;;;4815504;29;20064;-77
2021/08/24 14:14:39;;;;;;;3.25;0.85;;;20.40;95.80;;;;;;4800821;29;20057;-80
2021/08/24 14:17:26;;;;;;;2.28;0.77;;;20.30;96.40;;;;;;4785888;29;20060;-80
2021/08/24 14:19:55;;;;;;;1.20;0.73;;;20.20;97.10;;;;;;4785881;29;20047;-78
2021/08/24 14:22:24;;;;;;;4.97;0.73;;;20.10;97.30;;;;;;4815553;29;20058;-80
2021/08/24 14:24:52;;;;;;;1.77;0.60;;;20.10;97.80;;;;;;4816080;29;20281;-80
2021/08/24 14:27:18;;;;;;;1.05;0.70;;;20.20;98.10;;;;;;4800407;29;20026;-78
2021/08/24 14:29:45;;;;;;;1.52;0.90;;;20.10;97.80;;;;;;4800357;29;20030;-80
2021/08/24 14:32:29;;;;;;;1.58;0.80;;;20.00;98.30;;;;;;4800557;29;20322;-80
2021/08/24 14:34:55;;;;;;;0.88;0.73;;;20.00;98.70;;;;;;4800281;29;20054;-80
2021/08/24 14:37:24;;;;;;;4.05;1.05;;;20.00;98.60;;;;;;4815460;29;20123;-80
2021/08/24 14:40:04;;;;;;;1.55;1.00;;;19.90;98.50;;;;;;4799498;29;20035;-80
2021/08/24 14:42:45;;;;;;;2.63;0.88;;;20.00;98.80;;;;;;4819051;29;20045;-80
2021/08/24 14:45:22;;;;;;;2.45;1.27;;;20.00;99.00;;;;;;4835461;29;20102;-80
2021/08/24 14:47:59;;;;;;;;;;;19.90;99.30;;;;;;4834623;29;20350;-80
2021/08/24 14:50:33;;;;;;;1.98;1.25;;;20.00;99.40;;;;;;4849180;29;19909;-80
2021/08/24 14:52:59;;;;;;;2.00;1.42;;;20.00;99.60;;;;;;4849457;29;20050;-80
2021/08/24 14:55:32;;;;;;;3.28;1.20;;;20.10;99.20;;;;;;4834781;29;20098;-80
2021/08/24 14:58:01;;;;;;;2.58;1.30;;;20.20;99.30;;;;;;4848950;29;20038;-80
2021/08/24 15:00:40;;;;;;;1.73;1.17;;;20.20;99.20;;;;;;4848713;29;20035;-80
2021/08/24 15:03:09;;;;;;;4.10;1.60;;;20.30;99.00;;;;;;4849133;29;20072;-80
2021/08/24 15:05:47;;;;;;;3.30;1.75;;;20.20;98.90;;;;;;4835214;29;20062;-80
2021/08/24 15:08:12;;;;;;;8.32;1.35;;;20.20;99.00;;;;;;4848943;29;20049;-80
2021/08/24 15:10:46;;;;;;;4.80;1.20;;;20.20;98.60;;;;;;4833659;29;20079;-80
2021/08/24 15:13:22;;;;;;;2.28;1.17;;;20.10;98.70;;;;;;4833837;29;20087;-80
2021/08/24 15:15:51;;;;;;;1.95;1.40;;;20.10;98.70;;;;;;4851390;29;20368;-80
2021/08/24 15:18:43;;;;;;;6.68;1.23;;;20.00;97.80;;;;;;4867561;29;20034;-80
2021/08/24 15:21:10;;;;;;;5.18;1.48;;;20.10;96.70;;;;;;4866744;29;20034;-81
2021/08/24 15:23:37;;;;;;;1.75;1.27;;;20.10;96.50;;;;;;4866859;29;20038;-80
2021/08/24 15:26:34;;;;;;;2.50;1.65;;;20.10;95.90;;;;;;4867327;29;20050;-80
2021/08/24 15:29:05;;;;;;;1.73;1.50;;;20.10;94.70;;;;;;4799621;29;20038;-81
2021/08/24 15:31:32;;;;;;;3.58;1.52;;;20.10;94.70;;;;;;4814659;29;20284;-80
2021/08/24 15:33:58;;;;;;;5.65;1.60;;;20.10;94.30;;;;;;4814958;29;20053;-80
2021/08/24 15:36:25;;;;;;;4.22;1.90;;;20.10;94.20;;;;;;4799553;29;20409;-81
2021/08/24 15:38:54;;;;;;;6.30;1.48;;;20.20;94.30;;;;;;4799820;29;20335;-81
2021/08/24 15:41:24;;;;;;;2.55;1.25;;;20.20;93.50;;;;;;4799376;29;20043;-81
2021/08/24 15:44:20;;;;;;;5.50;1.55;;;20.20;93.70;;;;;;4814812;29;20079;-81
2021/08/24 15:46:51;;;;;;;2.10;1.50;;;20.30;93.50;;;;;;4778713;30;20052;-81
2021/08/24 15:49:19;;;;;;;4.72;1.70;;;20.30;93.60;;;;;;4778943;30;20040;-81
2021/08/24 15:51:45;;;;;;;;;;;20.30;92.50;;;;;;4765178;30;20079;-81
2021/08/24 15:54:15;;;;;;;2.60;1.70;;;20.30;92.40;;;;;;4781857;30;19910;-78
2021/08/24 15:56:43;;;;;;;3.83;2.38;;;20.40;91.70;;;;;;4766961;30;20047;-78
2021/08/24 15:59:09;;;;;;;3.60;2.08;;;20.40;91.60;;;;;;4781061;30;20039;-79
2021/08/24 16:01:37;;;;;;;3.80;1.70;;;20.30;91.60;;;;;;4781089;30;20127;-78